Flight Track Log - Related Links

Times and Time Zones

All times are in EDT time to prevent confusion due to time zone crossing. See the SWA2353 flight status page for this flight to view local times or setup timezone preferences in your user account.

Time Position Orientation Groundspeed Altitude Reporting Facility
EDT Latitude Longitude Course Direction KTS MPH feet Rate Location/Type
Fri 09:37:55 PM 41.6914 -87.7789 197° South 270 311 10,700  Level Chicago Center
Fri 09:38:57 PM 41.6039 -87.8533 212° Southwest 313 360 13,500 3,435 Climbing Chicago Center
Fri 09:39:59 PM 41.5086 -87.8917 197° South 351 404 17,800 3,484 Climbing Chicago Center
Fri 09:41:00 PM 41.1361 -88.0829 187° South  Level FlightAware Approximate
Fri 09:41:01 PM 41.4083 -87.9297 196° South 364 419 20,700  Level Chicago Center
Fri 09:42:02 PM 41.3006 -87.9681 195° South 388 447 23,500 2,585 Climbing Chicago Center
Fri 09:43:04 PM 41.1881 -88.0081 195° South 411 473 26,000 1,210 Climbing Chicago Center
Fri 09:44:06 PM 41.0717 -88.0503 195° South 429 494 26,000  Level Chicago Center
Fri 09:45:08 PM 40.9531 -88.0942 196° South 441 507 26,000  Level Chicago Center
Fri 09:46:09 PM 40.8389 -88.1644 205° Southwest 451 519 26,000  Level Chicago Center
Fri 09:47:11 PM 40.7256 -88.2294 203° Southwest 447 514 26,000  Level Chicago Center
Fri 09:48:13 PM 40.5892 -88.3103 204° Southwest 448 516 26,000  Level Chicago Center
Fri 09:49:14 PM 40.4744 -88.3767 204° Southwest 451 519 26,000  Level Chicago Center
Fri 09:50:16 PM 40.3603 -88.4422 204° Southwest 452 520 26,000  Level Chicago Center
Fri 09:51:18 PM 40.2389 -88.5131 204° Southwest 451 519 26,000  Level Chicago Center
Fri 09:52:19 PM 40.1219 -88.5803 204° Southwest 455 524 26,000  Level Chicago Center
Fri 09:53:14 PM 40.0264 -88.6333 203° Southwest 457 526 26,000  Level Kansas City Center
Fri 09:54:15 PM 39.9106 -88.7011 204° Southwest 455 524 26,000  Level Kansas City Center
Fri 09:55:17 PM 39.7706 -88.7797 203° Southwest 455 524 26,000  Level Kansas City Center
Fri 09:56:18 PM 39.6636 -88.8744 214° Southwest 463 533 26,000  Level Kansas City Center
Fri 09:57:20 PM 39.5681 -88.9786 220° Southwest 452 520 26,000  Level Kansas City Center
Fri 09:58:21 PM 39.4739 -89.0806 220° Southwest 443 510 26,000  Level Kansas City Center
Fri 09:59:26 PM 39.3850 -89.1769 220° Southwest 440 506 26,000 -1,795 Level Kansas City Center
Fri 10:00:28 PM 39.2731 -89.2972 220° Southwest 439 505 22,200 -3,268 Descending Kansas City Center
Fri 10:01:29 PM 39.1839 -89.3928 220° Southwest 425 489 19,300 -2,976 Descending Kansas City Center
Fri 10:02:31 PM 39.0950 -89.4883 220° Southwest 396 456 16,100 -2,927 Descending Kansas City Center
Fri 10:03:32 PM 39.0161 -89.5728 220° Southwest 372 428 13,300 -2,439 Descending Kansas City Center
Fri 10:04:34 PM 38.9336 -89.6522 217° Southwest 348 400 11,100 -1,415 Descending Kansas City Center
Fri 10:05:35 PM 38.8756 -89.7089 217° Southwest 316 364 10,400 -585 Descending Kansas City Center
Fri 10:06:37 PM 38.8164 -89.7678 218° Southwest 281 323 9,900 -683 Descending Kansas City Center
Fri 10:07:38 PM 38.7672 -89.8211 220° Southwest 245 282 9,000 -1,279 Descending Kansas City Center
Fri 10:08:39 PM 38.7147 -89.8806 221° Southwest 215 247 7,300 -1,220 Descending Kansas City Center
Fri 10:09:41 PM 38.6750 -89.9258 222° Southwest 203 234 6,500 -878 Descending Kansas City Center
Fri 10:10:42 PM 38.6428 -89.9678 225° Southwest 185 213 5,500 -732 Descending Kansas City Center
Fri 10:11:44 PM 38.6397 -90.0342 267° West 190 219 5,000 -634 Descending Kansas City Center
Fri 10:12:45 PM 38.6506 -90.1064 281° West 202 232 4,200 -738 Descending Kansas City Center
Fri 10:13:46 PM 38.6578 -90.1764 278° West 201 231 3,500 -829 Descending Kansas City Center
Fri 10:14:48 PM 38.6875 -90.2353 303° West 201 231 2,500 -878 Descending Kansas City Center
Fri 10:15:49 PM 38.7111 -90.2831 302° West 175 201 1,700 -787 Descending Kansas City Center
Fri 10:16:50 PM 38.7322 -90.3250 303° West 134 154 900 -537 Descending Kansas City Center
Fri 10:17:52 PM 38.7492 -90.3581 303° West 128 147 600 -290 Descending Kansas City Center

Login

Don't have an account? Register now (free) for customized features, flight alerts, and more!